• Join FlightAware (Why Join?)
  • Login
  • US Flag 
02:57AM EST


 

Airport Tracker/Info


-or-


 

Live Flight TrackerFlight Track Log ✈ N960DL ✈ 11-Apr-2013 ✈ KATL - KELP

Flight Track Log - Related Links

Times and Time Zones

All times are in EDT time to prevent confusion due to time zone crossing. See the N960DL flight status page for this flight to view local times or setup timezone preferences in your user account.

Time Position Orientation Groundspeed Altitude Reporting Facility
EDT Latitude Longitude Course Direction KTS MPH feet Rate Location/Type
11:34AM 33.6500 -84.4667 287° West 168 193 2,100  Level Atlanta TRACON
11:35AM 33.6667 -84.5333 287° West 243 280 3,700 2,100 Climbing Atlanta TRACON
11:36AM 33.6833 -84.6167 284° West 277 319 6,600 2,280 Climbing Atlanta TRACON
11:39AM 33.7103 -84.8231 279° West 295 339 10,800 1,980 Climbing Atlanta Center
11:40AM 33.7264 -84.9406 279° West 335 386 12,800 2,220 Climbing Atlanta Center
11:41AM 33.7442 -85.0681 280° West 371 427 15,300 2,400 Climbing Atlanta Center
11:42AM 33.7617 -85.1958 279° West 393 452 17,600 2,100 Climbing Atlanta Center
11:43AM 33.7833 -85.3311 281° West 398 458 19,500 1,800 Climbing Atlanta Center
11:44AM 33.8089 -85.4664 283° West 411 473 21,300 2,040 Climbing Atlanta Center
11:45AM 33.8303 -85.6042 281° West 411 473 23,600 1,920 Climbing Atlanta Center
11:46AM 33.8703 -85.7375 290° West 419 482 25,200 1,260 Climbing Atlanta Center
11:47AM 33.9042 -85.8533 289° West 419 482 26,200 1,200 Climbing Atlanta Center
11:48AM 33.9458 -85.9894 290° West 424 488 27,700 1,500 Climbing Atlanta Center
11:49AM 33.9894 -86.1258 291° West 435 501 29,200 1,380 Climbing Atlanta Center
11:50AM 34.0267 -86.2619 288° West 435 501 30,500 1,020 Climbing Atlanta Center
11:51AM 34.0944 -86.5147 288° West 436 502 32,000 540 Climbing Memphis Center
11:52AM 34.1319 -86.6483 289° West 436 502 32,000  Level Memphis Center
11:53AM 34.1714 -86.7872 289° West 436 502 32,000  Level Memphis Center
11:54AM 34.2061 -86.9064 289° West 431 496 32,000  Level Memphis Center
11:55AM 34.2431 -87.0381 289° West 419 482 32,000  Level Memphis Center
11:56AM 34.2822 -87.1772 289° West 427 491 32,000  Level Memphis Center
11:57AM 34.3236 -87.3292 288° West 437 503 32,000  Level Memphis Center
11:58AM 34.3289 -87.4722 273° West 425 489 32,000  Level Memphis Center
11:59AM 34.3489 -87.6100 280° West 425 489 32,000  Level Memphis Center
12:00PM 34.3831 -87.7497 287° West 425 489 32,000  Level Memphis Center
12:01PM 34.4217 -87.8922 288° West 435 501 32,000  Level Memphis Center
12:02PM 34.4700 -88.0244 294° West 435 501 32,000  Level Memphis Center
12:03PM 34.5222 -88.1464 297° West 440 506 32,000  Level Memphis Center
12:04PM 34.5850 -88.2783 300° West 446 513 32,000 360 Level Memphis Center
12:05PM 34.6456 -88.4083 300° West 446 513 32,800 840 Climbing Memphis Center
12:06PM 34.7039 -88.5306 300° West 438 504 33,700 600 Climbing Memphis Center
12:07PM 34.7369 -88.6664 287° West 421 484 34,000 120 Climbing Memphis Center
12:08PM 34.7639 -88.8025 284° West 416 479 34,000  Level Memphis Center
12:09PM 34.7800 -88.9411 278° West 416 479 34,000  Level Memphis Center
12:10PM 34.7922 -89.0928 276° West 416 479 34,000  Level Memphis Center
12:11PM 34.7978 -89.2342 273° West 411 473 34,000  Level Memphis Center
12:12PM 34.8053 -89.3681 274° West 411 473 34,000  Level Memphis Center
12:13PM 34.8103 -89.5022 273° West 411 473 34,000  Level Memphis Center
12:14PM 34.8131 -89.6133 272° West 405 466 34,000  Level Memphis Center
12:15PM 34.8161 -89.7678 271° West 410 472 34,000  Level Memphis Center
12:16PM 34.8186 -89.9017 271° West 410 472 34,000  Level Memphis Center
12:17PM 34.8275 -90.0561 274° West 437 503 34,000  Level Memphis Center
12:18PM 34.8319 -90.2103 272° West 432 497 34,000  Level Memphis Center
12:19PM 34.8364 -90.3519 272° West 425 489 34,000  Level Memphis Center
12:20PM 34.8383 -90.4936 271° West 419 482 34,000  Level Memphis Center
12:21PM 34.8422 -90.6381 272° West 424 488 34,000  Level Memphis Center
12:22PM 34.8439 -90.7822 271° West 424 488 34,000  Level Memphis Center
12:23PM 34.8497 -90.9214 273° West 419 482 34,000  Level Memphis Center
12:24PM 34.8511 -91.0631 271° West 424 488 34,000  Level Memphis Center
12:25PM 34.8522 -91.2075 271° West 419 482 34,000  Level Memphis Center
12:26PM 34.8553 -91.3492 272° West 424 488 34,000  Level Memphis Center
12:27PM 34.8583 -91.4933 272° West 424 488 34,000  Level Memphis Center
12:28PM 34.8592 -91.6200 270° West 424 488 34,000  Level Memphis Center
12:29PM 34.8597 -91.7744 270° West 419 482 34,000  Level Memphis Center
12:30PM 34.8642 -91.9136 272° West 419 482 34,000  Level Memphis Center
12:31PM 34.8644 -92.0578 270° West 419 482 34,000  Level Memphis Center
12:32PM 34.8625 -92.1997 269° West 419 482 34,000  Level Memphis Center
12:33PM 34.8478 -92.3386 263° West 419 482 34,000  Level Memphis Center
12:34PM 34.8350 -92.4747 264° West 419 482 34,000  Level Memphis Center
12:35PM 34.8181 -92.6136 262° West 419 482 34,000  Level Memphis Center
12:36PM 34.8008 -92.7497 261° West 419 482 34,000  Level Memphis Center
12:37PM 34.7878 -92.8883 263° West 419 482 34,000  Level Memphis Center
12:38PM 34.7703 -93.0192 261° West 412 474 34,000  Level Memphis Center
12:39PM 34.7547 -93.1578 262° West 404 465 34,000  Level Memphis Center
12:40PM 34.7372 -93.2861 261° West 404 465 34,000  Level Memphis Center
12:41PM 34.7214 -93.4269 262° West 411 473 34,000  Level Memphis Center
12:42PM 34.7056 -93.5578 262° West 406 467 34,000  Level Memphis Center
12:45PM 34.6700 -93.8686 262° West 408 470 34,000  Level Fort Worth Center
12:46PM 34.6550 -94.0031 262° West 408 470 34,000  Level Fort Worth Center
12:47PM 34.6397 -94.1350 262° West 408 470 34,000  Level Fort Worth Center
12:48PM 34.6200 -94.2669 260° West 408 470 34,000  Level Fort Worth Center
12:49PM 34.6044 -94.3936 262° West 408 470 34,000  Level Fort Worth Center
12:50PM 34.5886 -94.5203 261° West 395 455 34,000  Level Fort Worth Center
12:51PM 34.5728 -94.6494 262° West 390 449 34,100 300 Climbing Fort Worth Center
12:52PM 34.5544 -94.7736 260° West 390 449 34,700 480 Climbing Fort Worth Center
12:53PM 34.5344 -94.9078 260° West 397 457 35,100 300 Climbing Fort Worth Center
12:54PM 34.5181 -95.0394 261° West 397 457 35,400 240 Climbing Fort Worth Center
12:55PM 34.5019 -95.1708 262° West 397 457 35,700 300 Climbing Fort Worth Center
12:56PM 34.4811 -95.3075 260° West 407 468 36,000 120 Climbing Fort Worth Center
12:57PM 34.4644 -95.4364 261° West 407 468 36,000  Level Fort Worth Center
12:58PM 34.4417 -95.5853 260° West 412 474 36,000  Level Fort Worth Center
12:59PM 34.4228 -95.7217 261° West 412 474 36,000  Level Fort Worth Center
01:00PM 34.4036 -95.8556 260° West 412 474 36,000  Level Fort Worth Center
01:01PM 34.3844 -95.9917 260° West 412 474 36,000  Level Fort Worth Center
01:02PM 34.3608 -96.1306 258° West 412 474 36,000  Level Fort Worth Center
01:03PM 34.3225 -96.2617 251° West 412 474 36,000  Level Fort Worth Center
01:04PM 34.2778 -96.3931 248° West 419 482 36,000  Level Fort Worth Center
01:05PM 34.2308 -96.5267 247° West 424 488 36,000  Level Fort Worth Center
01:06PM 34.1897 -96.6553 249° West 424 488 36,000  Level Fort Worth Center
01:07PM 34.1425 -96.7861 246° West 424 488 36,000  Level Fort Worth Center
01:08PM 34.0972 -96.9169 247° West 424 488 36,000  Level Fort Worth Center
01:09PM 34.0517 -97.0500 248° West 424 488 36,000  Level Fort Worth Center
01:10PM 34.0042 -97.1831 247° West 430 495 36,000  Level Fort Worth Center
01:11PM 33.9564 -97.3158 247° West 435 501 36,000  Level Fort Worth Center
01:12PM 33.9103 -97.4486 247° West 440 506 36,000  Level Fort Worth Center
01:13PM 33.8622 -97.5811 246° West 440 506 36,000  Level Fort Worth Center
01:14PM 33.8139 -97.7133 246° West 440 506 36,000  Level Fort Worth Center
01:15PM 33.7656 -97.8358 245° Southwest 432 497 36,000  Level Fort Worth Center
01:16PM 33.7233 -97.9703 249° West 426 490 36,000  Level Fort Worth Center
01:17PM 33.6789 -98.0975 247° West 420 483 36,000  Level Fort Worth Center
01:18PM 33.6303 -98.2267 246° West 420 483 36,000  Level Fort Worth Center
01:19PM 33.5853 -98.3561 247° West 420 483 36,000  Level Fort Worth Center
01:20PM 33.5386 -98.4825 246° West 420 483 36,000  Level Fort Worth Center
01:21PM 33.4914 -98.6092 246° West 415 478 36,000  Level Fort Worth Center
01:22PM 33.4464 -98.7353 247° West 415 478 36,000  Level Fort Worth Center
01:23PM 33.3989 -98.8592 245° Southwest 415 478 36,000  Level Fort Worth Center
01:24PM 33.3517 -98.9850 246° West 415 478 36,000  Level Fort Worth Center
01:25PM 33.3061 -99.1086 246° West 415 478 36,000  Level Fort Worth Center
01:26PM 33.2606 -99.2294 246° West 415 478 36,000  Level Fort Worth Center
01:27PM 33.2150 -99.3528 246° West 415 478 36,000  Level Fort Worth Center
01:28PM 33.1692 -99.4733 246° West 415 478 36,000  Level Fort Worth Center
01:29PM 33.1233 -99.5936 246° West 410 472 36,000  Level Fort Worth Center
01:30PM 33.0753 -99.7164 245° Southwest 410 472 36,000  Level Fort Worth Center
01:31PM 33.0292 -99.8367 245° Southwest 410 472 36,000  Level Fort Worth Center
01:32PM 32.9808 -99.9567 244° Southwest 410 472 36,000  Level Fort Worth Center
01:33PM 32.9344 -100.0767 245° Southwest 410 472 36,000  Level Fort Worth Center
01:34PM 32.8900 -100.1992 247° West 410 472 36,000  Level Fort Worth Center
01:35PM 32.8414 -100.3161 244° Southwest 410 472 36,000  Level Fort Worth Center
01:36PM 32.7947 -100.4383 246° West 404 465 36,000  Level Fort Worth Center
01:37PM 32.7481 -100.5553 245° Southwest 399 459 36,000  Level Fort Worth Center
01:38PM 32.7011 -100.6769 245° Southwest 399 459 36,000  Level Fort Worth Center
01:39PM 32.6542 -100.7961 245° Southwest 399 459 36,000  Level Fort Worth Center
01:40PM 32.6133 -100.9131 248° West 399 459 36,000  Level Fort Worth Center
01:41PM 32.5911 -101.0356 258° West 388 447 36,000  Level Fort Worth Center
01:42PM 32.5706 -101.1628 259° West 388 447 36,000  Level Fort Worth Center
01:44PM 32.5297 -101.4075 259° West 388 447 36,000  Level Fort Worth Center
01:45PM 32.5069 -101.5319 258° West 388 447 36,000  Level Fort Worth Center
01:46PM 32.4861 -101.6567 259° West 393 452 36,000  Level Fort Worth Center
01:47PM 32.4650 -101.7789 258° West 393 452 36,000  Level Fort Worth Center
01:48PM 32.4419 -101.9008 257° West 393 452 36,000  Level Fort Worth Center
01:49PM 32.4208 -102.0253 259° West 393 452 36,000  Level Fort Worth Center
01:50PM 32.3997 -102.1422 258° West 387 445 36,000  Level Fort Worth Center
01:51PM 32.3783 -102.2642 258° West 387 445 36,000  Level Fort Worth Center
01:52PM 32.3569 -102.3858 258° West 387 445 36,000  Level Fort Worth Center
01:53PM 32.3353 -102.5075 258° West 387 445 36,000  Level Fort Worth Center
01:54PM 32.3164 -102.6172 259° West 387 445 36,000  Level Fort Worth Center
01:55PM 32.2967 -102.7364 259° West 387 445 36,000  Level Fort Worth Center
01:56PM 32.2769 -102.8581 259° West 387 445 36,000  Level Fort Worth Center
01:56PM 32.2647 -102.9183 257° West 373 429 36,000  Level Albuquerque Center
01:57PM 32.2400 -103.0647 259° West 376 433 36,000  Level Albuquerque Center
01:58PM 32.2181 -103.1844 258° West 375 432 36,000  Level Albuquerque Center
01:59PM 32.1964 -103.3047 258° West 375 432 36,000  Level Albuquerque Center
02:00PM 32.1739 -103.4247 258° West 374 430 36,000  Level Albuquerque Center
02:01PM 32.1528 -103.5431 258° West 372 428 36,000  Level Albuquerque Center
02:02PM 32.1300 -103.6608 257° West 370 426 36,000  Level Albuquerque Center
02:03PM 32.1053 -103.8042 259° West 372 428 36,000  Level Albuquerque Center
02:05PM 32.0836 -103.9217 258° West 370 426 36,000  Level Albuquerque Center
02:06PM 32.0600 -104.0392 257° West 369 425 36,000  Level Albuquerque Center
02:07PM 32.0397 -104.1506 258° West 371 427 36,000 -60 Level Albuquerque Center
02:08PM 32.0119 -104.2917 257° West 371 427 35,900 -360 Descending Albuquerque Center
02:09PM 31.9906 -104.4097 258° West 369 425 35,300 -1,260 Descending Albuquerque Center
02:10PM 31.9772 -104.5308 263° West 371 427 33,400 -1,920 Descending Albuquerque Center
02:11PM 31.9653 -104.6575 264° West 385 443 31,400 -2,040 Descending Albuquerque Center
02:12PM 31.9511 -104.7869 263° West 393 452 29,200 -2,280 Descending Albuquerque Center
02:13PM 31.9369 -104.9169 263° West 400 460 26,700 -2,460 Descending Albuquerque Center
02:14PM 31.9206 -105.0794 263° West 414 476 24,200 -1,980 Descending Albuquerque Center
02:15PM 31.9064 -105.2122 263° West 414 476 22,600 -1,860 Descending Albuquerque Center
02:16PM 31.8925 -105.3406 263° West 404 465 20,400 -2,460 Descending Albuquerque Center
02:16PM 31.8856 -105.4106 263° West 389 448 19,000 -2,760 Descending Albuquerque Center
02:17PM 31.8775 -105.4661 260° West 387 445 17,600 -2,580 Descending Albuquerque Center
02:18PM 31.8739 -105.5892 268° West 379 436 14,800 -3,000 Descending Albuquerque Center
02:19PM 31.8731 -105.7342 270° West 372 428 11,500 -2,280 Descending Albuquerque Center
02:20PM 31.8450 -105.8450 253° West 364 419 10,200 -840 Descending Albuquerque Center
02:21PM 31.8367 -105.9422 264° West 301 346 9,800 -660 Descending Albuquerque Center
02:22PM 31.8400 -106.0333 272° West 283 326 8,900 -1,080 Descending Albuquerque Center
02:23PM 31.8472 -106.1342 275° West 274 315 7,700 -1,080 Descending Albuquerque Center
02:24PM 31.8531 -106.2125 275° West 224 258 6,800 -900 Descending Albuquerque Center
02:25PM 31.8583 -106.2764 276° West 185 213 5,900 -960 Descending Albuquerque Center
02:26PM 31.8475 -106.3342 258° West 156 180 4,900 -960 Descending Albuquerque Center
02:27PM 31.8192 -106.3742 230° Southwest 151 174 3,900 -900 Descending Albuquerque Center